createdAt,value
2017-10-24T00:01:48.956Z,68.20
2017-10-24T00:04:17.040Z,70.60
2017-10-24T00:06:45.121Z,70.00
2017-10-24T00:11:43.316Z,69.00
2017-10-24T00:14:11.446Z,70.40
2017-10-24T00:16:39.520Z,69.50
2017-10-24T00:19:07.603Z,69.00
2017-10-24T00:21:35.693Z,69.10
2017-10-24T00:24:03.766Z,69.50
2017-10-24T00:26:31.875Z,68.50
2017-10-24T00:29:01.086Z,70.80
2017-10-24T00:33:58.531Z,68.80
2017-10-24T00:36:27.762Z,69.30
2017-10-24T00:38:55.843Z,70.00
2017-10-24T00:41:23.942Z,69.20
2017-10-24T00:43:52.019Z,67.90
2017-10-24T00:46:20.099Z,68.30
2017-10-24T00:51:17.558Z,70.00
2017-10-24T00:53:46.408Z,72.80
2017-10-24T00:56:14.508Z,72.60
2017-10-24T00:58:42.584Z,72.60
2017-10-24T01:01:10.683Z,71.10
2017-10-24T01:03:38.758Z,69.40
2017-10-24T01:06:06.875Z,68.90
2017-10-24T01:08:34.951Z,69.20
2017-10-24T01:13:32.386Z,68.50
2017-10-24T01:16:00.459Z,67.80
2017-10-24T01:18:29.695Z,68.20
2017-10-24T01:20:57.778Z,68.70
2017-10-24T01:23:25.877Z,68.60
2017-10-24T01:25:54.767Z,68.40
2017-10-24T01:28:24.374Z,69.20
2017-10-24T01:30:52.483Z,68.10
2017-10-24T01:33:21.334Z,68.40
2017-10-24T01:35:49.455Z,68.00
2017-10-24T01:38:17.553Z,68.00
2017-10-24T01:40:45.637Z,67.80
2017-10-24T01:43:13.747Z,67.20
2017-10-24T01:45:41.824Z,68.10
2017-10-24T01:48:10.692Z,68.30
2017-10-24T01:50:38.769Z,68.10
2017-10-24T01:53:06.884Z,70.30
2017-10-24T01:55:34.962Z,69.70
2017-10-24T01:58:03.823Z,69.30
2017-10-24T02:00:33.061Z,69.50
2017-10-24T02:03:01.168Z,69.20
2017-10-24T02:05:29.259Z,69.80
2017-10-24T02:07:57.363Z,70.70
2017-10-24T02:10:25.489Z,71.40
2017-10-24T02:12:53.578Z,71.80
2017-10-24T02:15:21.669Z,72.60
2017-10-24T02:17:51.288Z,73.90
2017-10-24T02:22:48.764Z,75.30
2017-10-24T02:25:16.871Z,75.20
2017-10-24T02:27:45.776Z,76.10
2017-10-24T02:30:13.890Z,75.10
2017-10-24T02:32:42.764Z,76.00
2017-10-24T02:35:10.852Z,76.80
2017-10-24T02:37:38.966Z,76.20
2017-10-24T02:42:36.432Z,76.10
2017-10-24T02:45:04.514Z,75.40
2017-10-24T02:47:32.621Z,74.60
2017-10-24T02:50:00.705Z,75.20
2017-10-24T02:52:28.805Z,76.10
2017-10-24T02:54:58.394Z,77.40
2017-10-24T02:59:55.851Z,78.10
2017-10-24T03:02:23.962Z,77.80
2017-10-24T03:04:52.064Z,78.70
2017-10-24T03:07:20.165Z,79.00
2017-10-24T03:09:49.785Z,79.50
2017-10-24T03:12:18.675Z,78.30
2017-10-24T03:14:46.792Z,78.50
2017-10-24T03:17:14.883Z,78.40
2017-10-24T03:19:42.984Z,78.40
2017-10-24T03:24:40.448Z,79.30
2017-10-24T03:27:08.531Z,79.70
2017-10-24T03:29:36.668Z,80.20
2017-10-24T03:32:04.766Z,80.20
2017-10-24T03:34:32.855Z,80.50
2017-10-24T03:37:00.968Z,81.50
2017-10-24T03:39:29.079Z,82.30
2017-10-24T03:41:57.180Z,83.10
2017-10-24T03:46:54.667Z,83.60
2017-10-24T03:49:23.534Z,84.40
2017-10-24T03:51:51.632Z,85.10
2017-10-24T03:59:18.493Z,87.80
2017-10-24T04:01:46.588Z,88.40
2017-10-24T04:04:16.192Z,88.50
2017-10-24T04:06:44.303Z,88.60
2017-10-24T04:09:12.418Z,87.50
2017-10-24T04:11:42.260Z,87.70
2017-10-24T04:16:39.752Z,87.60
2017-10-24T04:19:09.374Z,87.20
2017-10-24T04:21:37.490Z,88.10
2017-10-24T04:24:06.351Z,88.60
2017-10-24T04:26:34.475Z,89.20
2017-10-24T04:29:03.343Z,89.80
2017-10-24T04:31:32.568Z,90.10
2017-10-24T04:34:01.448Z,90.60
2017-10-24T04:38:58.895Z,90.50
2017-10-24T04:41:27.011Z,90.00
2017-10-24T04:43:55.868Z,90.30
2017-10-24T04:48:53.307Z,90.30
2017-10-24T04:51:22.186Z,90.40
2017-10-24T04:56:19.655Z,90.60
2017-10-24T04:58:47.745Z,90.90
2017-10-24T05:01:16.623Z,90.30
2017-10-24T05:03:44.732Z,88.90
2017-10-24T05:11:11.859Z,89.00
2017-10-24T05:13:39.951Z,90.00
2017-10-24T05:16:08.071Z,90.20
2017-10-24T05:18:36.175Z,90.60
2017-10-24T05:21:05.031Z,91.20
2017-10-24T05:23:33.996Z,91.10
2017-10-24T05:26:02.088Z,91.20
2017-10-24T05:28:30.591Z,91.20
2017-10-24T05:30:58.692Z,91.30
2017-10-24T05:33:26.799Z,91.40
2017-10-24T05:35:56.699Z,91.50
2017-10-24T05:38:24.816Z,91.60
2017-10-24T05:40:52.880Z,91.70
2017-10-24T05:43:20.992Z,91.70
2017-10-24T05:45:49.896Z,91.80
2017-10-24T05:48:17.993Z,91.50
2017-10-24T05:50:46.499Z,91.50
2017-10-24T05:53:14.612Z,91.70
2017-10-24T05:55:42.732Z,91.80
2017-10-24T05:58:10.817Z,91.80
2017-10-24T06:00:38.912Z,91.80
2017-10-24T06:03:08.524Z,91.90
2017-10-24T06:05:37.402Z,91.90
2017-10-24T06:08:05.492Z,91.70
2017-10-24T06:10:34.351Z,91.80
2017-10-24T06:13:02.467Z,91.80
2017-10-24T06:17:59.925Z,92.00
2017-10-24T06:20:28.788Z,92.30
2017-10-24T06:22:56.919Z,92.00
2017-10-24T06:25:25.009Z,92.10
2017-10-24T06:27:54.230Z,92.40
2017-10-24T06:30:22.342Z,92.30
2017-10-24T06:32:51.191Z,92.50
2017-10-24T06:35:19.312Z,92.40
2017-10-24T06:37:47.432Z,92.10
2017-10-24T06:40:16.263Z,92.00
2017-10-24T06:42:45.889Z,92.00
2017-10-24T06:45:13.996Z,92.20
2017-10-24T06:47:42.111Z,92.20
2017-10-24T06:50:10.984Z,92.50
2017-10-24T06:52:39.075Z,92.20
2017-10-24T06:55:07.967Z,92.30
2017-10-24T06:57:36.820Z,92.20
2017-10-24T07:00:04.922Z,91.80
2017-10-24T07:02:33.799Z,92.10
2017-10-24T07:05:01.895Z,91.60
2017-10-24T07:07:30.767Z,91.90
2017-10-24T07:09:58.864Z,91.60
2017-10-24T07:12:26.996Z,91.60
2017-10-24T07:14:55.085Z,91.40
2017-10-24T07:17:23.143Z,91.40
2017-10-24T07:19:51.268Z,91.60
2017-10-24T07:22:19.764Z,91.90
2017-10-24T07:24:48.996Z,91.80
2017-10-24T07:27:17.104Z,91.90
2017-10-24T07:29:45.987Z,92.10
2017-10-24T07:32:14.850Z,92.20
2017-10-24T07:34:42.971Z,91.90
2017-10-24T07:37:11.073Z,91.90
2017-10-24T07:39:39.184Z,91.70
2017-10-24T07:42:07.276Z,91.40
2017-10-24T07:44:36.159Z,91.70
2017-10-24T07:47:05.019Z,91.40
2017-10-24T07:49:33.176Z,91.30
2017-10-24T07:52:01.260Z,91.30
2017-10-24T07:54:30.154Z,91.40
2017-10-24T07:56:58.237Z,91.40
2017-10-24T07:59:26.351Z,91.30
2017-10-24T08:01:54.448Z,91.40
2017-10-24T08:04:22.664Z,91.60
2017-10-24T08:06:50.751Z,91.20
2017-10-24T08:09:19.616Z,91.60
2017-10-24T08:11:49.226Z,91.40
2017-10-24T08:14:17.316Z,91.40
2017-10-24T08:16:46.195Z,91.60
2017-10-24T08:19:14.283Z,91.50
2017-10-24T08:21:42.787Z,91.40
2017-10-24T08:24:11.282Z,91.20
2017-10-24T08:26:39.390Z,90.90
2017-10-24T08:29:07.475Z,90.90
2017-10-24T08:31:36.720Z,90.90
2017-10-24T08:34:04.811Z,90.50
2017-10-24T08:36:34.432Z,90.60
2017-10-24T08:39:02.561Z,90.90
2017-10-24T08:41:30.612Z,90.50
2017-10-24T08:43:58.720Z,90.60
2017-10-24T08:46:26.812Z,90.80
2017-10-24T08:48:54.892Z,90.60
2017-10-24T08:51:22.991Z,90.70
2017-10-24T08:53:51.443Z,90.90
2017-10-24T08:56:19.549Z,90.20
2017-10-24T08:58:47.624Z,89.50
2017-10-24T09:01:30.060Z,89.30
2017-10-24T09:03:58.157Z,90.20
2017-10-24T09:06:47.600Z,90.20
2017-10-24T09:09:37.183Z,90.00
2017-10-24T09:12:09.559Z,88.80
2017-10-24T09:14:39.156Z,89.80
2017-10-24T09:17:19.795Z,90.20
2017-10-24T09:20:07.246Z,90.00
2017-10-24T09:22:36.091Z,90.20
2017-10-24T09:25:04.194Z,89.50
2017-10-24T09:27:32.271Z,88.80
2017-10-24T09:30:01.140Z,89.10
2017-10-24T09:32:34.619Z,88.50
2017-10-24T09:35:02.710Z,88.00
2017-10-24T09:37:32.394Z,88.50
2017-10-24T09:40:00.451Z,87.50
2017-10-24T09:42:28.552Z,87.20
2017-10-24T09:44:56.630Z,87.30
2017-10-24T09:47:24.723Z,87.60
2017-10-24T09:49:57.699Z,87.50
2017-10-24T09:52:25.787Z,87.30
2017-10-24T09:54:54.645Z,87.00
2017-10-24T09:57:22.739Z,86.40
2017-10-24T09:59:51.583Z,87.00
2017-10-24T10:02:20.824Z,86.90
2017-10-24T10:04:48.927Z,85.50
2017-10-24T10:07:17.792Z,86.60
2017-10-24T10:09:45.896Z,85.30
2017-10-24T10:12:13.976Z,84.70
2017-10-24T10:14:42.079Z,84.30
2017-10-24T10:19:40.316Z,82.00
2017-10-24T10:22:10.084Z,81.90
2017-10-24T10:24:38.922Z,80.60
2017-10-24T10:27:07.764Z,81.20
2017-10-24T10:29:35.888Z,81.00
2017-10-24T10:32:03.967Z,81.00
2017-10-24T10:34:32.047Z,81.40
2017-10-24T10:37:00.528Z,80.30
2017-10-24T10:39:29.379Z,80.10
2017-10-24T10:41:57.851Z,79.00
2017-10-24T10:44:25.955Z,79.60
2017-10-24T10:46:55.033Z,80.90
2017-10-24T10:49:23.074Z,80.10
2017-10-24T10:51:51.175Z,79.60
2017-10-24T10:54:20.759Z,80.10
2017-10-24T10:56:48.859Z,79.90
2017-10-24T10:59:16.963Z,79.40
2017-10-24T11:01:45.046Z,79.80
2017-10-24T11:04:13.151Z,79.30
2017-10-24T11:06:41.633Z,80.00
2017-10-24T11:09:10.497Z,79.70
2017-10-24T11:14:08.723Z,79.60
2017-10-24T11:16:36.803Z,77.90
2017-10-24T11:19:04.917Z,78.20
2017-10-24T11:21:33.759Z,78.00
2017-10-24T11:26:31.225Z,77.40
2017-10-24T11:28:59.312Z,78.00
2017-10-24T11:31:27.796Z,76.90
2017-10-24T11:33:55.883Z,78.10
2017-10-24T11:36:24.756Z,78.40
2017-10-24T11:38:52.855Z,78.10
2017-10-24T11:41:21.713Z,77.90
2017-10-24T11:43:49.800Z,76.80
2017-10-24T11:46:17.879Z,78.10
2017-10-24T11:48:46.747Z,77.90
2017-10-24T11:51:14.843Z,77.00
2017-10-24T11:53:44.444Z,76.10
2017-10-24T11:56:12.547Z,76.60
2017-10-24T11:58:41.427Z,76.80
2017-10-24T12:01:10.271Z,76.20
2017-10-24T12:03:38.744Z,75.20
2017-10-24T12:06:06.844Z,75.40
2017-10-24T12:08:34.930Z,73.90
2017-10-24T12:11:03.036Z,72.30
2017-10-24T12:13:31.131Z,71.40
2017-10-24T12:16:00.722Z,68.50
2017-10-24T12:18:28.827Z,68.20
2017-10-24T12:20:56.908Z,68.10
2017-10-24T12:23:24.998Z,66.30
2017-10-24T12:25:53.096Z,65.20
2017-10-24T12:28:21.183Z,65.20
2017-10-24T12:30:49.288Z,64.60
2017-10-24T12:33:17.371Z,64.70
2017-10-24T12:35:45.471Z,64.30
2017-10-24T12:38:14.316Z,64.10
2017-10-24T12:40:42.415Z,63.10
2017-10-24T12:43:10.504Z,63.50
2017-10-24T12:45:39.355Z,64.60
2017-10-24T12:48:07.435Z,62.70
2017-10-24T12:50:38.191Z,62.90
2017-10-24T12:55:36.768Z,62.80
2017-10-24T12:58:05.300Z,61.80
2017-10-24T13:00:33.379Z,61.70
2017-10-24T13:03:01.492Z,61.70
2017-10-24T13:05:29.575Z,60.60
2017-10-24T13:07:57.656Z,60.40
2017-10-24T13:10:25.755Z,61.10
2017-10-24T13:12:53.827Z,61.00
2017-10-24T13:15:21.944Z,60.80
2017-10-24T13:17:50.031Z,61.60
2017-10-24T13:20:19.624Z,62.50
2017-10-24T13:22:47.735Z,62.20
2017-10-24T13:25:17.329Z,62.70
2017-10-24T13:30:14.784Z,62.50
2017-10-24T13:32:42.872Z,62.70
2017-10-24T13:37:40.335Z,62.80
2017-10-24T13:40:08.420Z,62.80
2017-10-24T13:42:36.532Z,62.80
2017-10-24T13:45:04.619Z,63.40
2017-10-24T13:47:33.459Z,62.80
2017-10-24T13:50:02.348Z,63.60
2017-10-24T13:52:30.424Z,62.80
2017-10-24T13:54:59.582Z,62.80
2017-10-24T13:57:27.676Z,62.80
2017-10-24T13:59:55.760Z,62.30
2017-10-24T14:02:24.232Z,62.90
2017-10-24T14:04:58.417Z,62.00
2017-10-24T14:07:42.323Z,62.30
2017-10-24T14:13:16.875Z,63.40
2017-10-24T14:15:44.979Z,62.80
2017-10-24T14:18:13.066Z,63.30
2017-10-24T14:20:41.560Z,62.90
2017-10-24T14:23:11.163Z,63.40
2017-10-24T14:25:39.272Z,62.90
2017-10-24T14:28:08.865Z,61.70
2017-10-24T14:30:36.974Z,61.60
2017-10-24T14:33:05.057Z,62.80
2017-10-24T14:35:34.673Z,62.80
2017-10-24T14:38:02.772Z,62.80
2017-10-24T14:40:30.856Z,62.90
2017-10-24T14:42:59.344Z,63.30
2017-10-24T14:45:27.448Z,64.00
2017-10-24T14:50:24.913Z,63.10
2017-10-24T14:52:53.755Z,64.00
2017-10-24T14:55:21.844Z,63.40
2017-10-24T14:57:49.946Z,64.10
2017-10-24T15:00:18.812Z,64.80
2017-10-24T15:02:47.288Z,65.00
2017-10-24T15:05:15.392Z,65.10
2017-10-24T15:07:44.256Z,65.70
2017-10-24T15:10:12.331Z,64.90
2017-10-24T15:12:40.432Z,65.00
2017-10-24T15:15:09.652Z,66.00
2017-10-24T15:17:38.516Z,66.00
2017-10-24T15:20:07.041Z,66.60
2017-10-24T15:22:35.127Z,67.10
2017-10-24T15:25:03.217Z,67.60
2017-10-24T15:27:31.348Z,67.50
2017-10-24T15:30:00.588Z,67.60
2017-10-24T15:32:28.671Z,67.20
2017-10-24T15:34:57.617Z,68.10
2017-10-24T15:37:25.699Z,68.10
2017-10-24T15:39:54.176Z,68.10
2017-10-24T15:42:23.051Z,68.30
2017-10-24T15:44:51.232Z,68.70
2017-10-24T15:47:19.335Z,68.20
2017-10-24T15:49:47.439Z,68.50
2017-10-24T15:52:16.291Z,69.20
2017-10-24T15:54:44.391Z,69.00
2017-10-24T15:57:13.259Z,69.40
2017-10-24T15:59:41.351Z,69.20
2017-10-24T16:02:09.468Z,69.50
2017-10-24T16:04:37.556Z,69.90
2017-10-24T16:07:05.639Z,70.30
2017-10-24T16:09:33.744Z,70.60
2017-10-24T16:12:02.976Z,71.00
2017-10-24T16:14:31.103Z,71.70
2017-10-24T16:16:59.200Z,73.20
2017-10-24T16:19:28.060Z,74.50
2017-10-24T16:21:56.176Z,77.00
2017-10-24T16:24:24.283Z,79.50
2017-10-24T16:26:52.383Z,80.50
2017-10-24T16:29:20.492Z,81.40
2017-10-24T16:31:48.980Z,81.90
2017-10-24T16:34:19.751Z,82.70
2017-10-24T16:36:48.322Z,84.10
2017-10-24T16:39:16.388Z,84.10
2017-10-24T16:41:45.641Z,83.60
2017-10-24T16:44:14.495Z,85.10
2017-10-24T16:46:43.003Z,85.30
2017-10-24T16:49:11.869Z,85.50
2017-10-24T16:51:40.030Z,85.60
2017-10-24T16:54:08.107Z,85.40
2017-10-24T16:56:36.220Z,85.80
2017-10-24T17:01:34.079Z,86.60
2017-10-24T17:04:02.587Z,86.60
2017-10-24T17:06:31.448Z,88.00
2017-10-24T17:08:59.931Z,88.60
2017-10-24T17:11:28.047Z,88.50
2017-10-24T17:13:56.911Z,89.10
2017-10-24T17:16:25.767Z,89.80
2017-10-24T17:18:53.860Z,90.30
2017-10-24T17:21:21.976Z,90.30
2017-10-24T17:23:50.835Z,90.30
2017-10-24T17:28:48.288Z,90.50
2017-10-24T17:31:16.412Z,90.50
2017-10-24T17:33:44.512Z,90.80
2017-10-24T17:36:13.744Z,91.10
2017-10-24T17:38:41.859Z,90.80
2017-10-24T17:43:39.332Z,91.30
2017-10-24T17:46:08.188Z,91.70
2017-10-24T17:48:36.270Z,91.50
2017-10-24T17:51:04.781Z,91.50
2017-10-24T17:53:33.104Z,91.30
2017-10-24T17:56:01.551Z,91.60
2017-10-24T17:58:29.644Z,91.70
2017-10-24T18:00:58.151Z,91.90
2017-10-24T18:03:26.260Z,92.00
2017-10-24T18:05:54.372Z,92.20
2017-10-24T18:08:22.509Z,92.20
2017-10-24T18:10:51.741Z,92.20
2017-10-24T18:13:20.993Z,92.40
2017-10-24T18:15:50.603Z,91.90
2017-10-24T18:18:19.482Z,91.80
2017-10-24T18:20:47.598Z,91.00
2017-10-24T18:23:15.736Z,90.70
2017-10-24T18:25:43.832Z,90.30
2017-10-24T18:28:13.061Z,90.20
2017-10-24T18:30:41.924Z,89.60
2017-10-24T18:33:10.797Z,89.80
2017-10-24T18:35:39.649Z,90.00
2017-10-24T18:38:07.759Z,89.80
2017-10-24T18:40:37.583Z,90.30
2017-10-24T18:43:07.199Z,90.10
2017-10-24T18:45:35.288Z,90.10
2017-10-24T18:48:03.383Z,90.30
2017-10-24T18:50:32.244Z,90.40
2017-10-24T18:53:00.354Z,90.20
2017-10-24T18:55:28.461Z,90.30
2017-10-24T18:57:57.311Z,90.60
2017-10-24T19:00:25.418Z,90.10
2017-10-24T19:02:53.533Z,90.20
2017-10-24T19:05:22.390Z,90.70
2017-10-24T19:10:19.845Z,90.70
2017-10-24T19:15:18.425Z,90.30
2017-10-24T19:17:46.558Z,90.20
2017-10-24T19:20:15.063Z,90.50
2017-10-24T19:27:42.720Z,91.70
2017-10-24T19:30:12.324Z,91.80
2017-10-24T19:32:41.202Z,92.30
2017-10-24T19:35:10.077Z,92.80
2017-10-24T19:37:40.007Z,92.40
2017-10-24T19:40:08.088Z,92.40
2017-10-24T19:42:36.966Z,92.60
2017-10-24T19:45:05.048Z,92.50
2017-10-24T19:47:33.900Z,92.80
2017-10-24T19:50:02.008Z,92.60
2017-10-24T19:52:30.088Z,92.60
2017-10-24T19:54:58.947Z,92.90
2017-10-24T19:57:27.446Z,92.70
2017-10-24T19:59:55.533Z,92.80
2017-10-24T20:02:24.428Z,93.10
2017-10-24T20:04:52.915Z,92.80
2017-10-24T20:07:21.007Z,92.80
2017-10-24T20:09:49.880Z,92.80
2017-10-24T20:12:17.979Z,92.80
2017-10-24T20:14:46.849Z,92.90
2017-10-24T20:19:44.317Z,93.00
2017-10-24T20:22:12.795Z,93.00
2017-10-24T20:24:40.904Z,92.90
2017-10-24T20:27:09.000Z,93.10
2017-10-24T20:29:37.091Z,93.10
2017-10-24T20:32:05.196Z,93.30
2017-10-24T20:34:33.283Z,93.30
2017-10-24T20:37:02.154Z,93.30
2017-10-24T20:39:30.248Z,93.30
2017-10-24T20:41:58.368Z,93.40
2017-10-24T20:44:27.244Z,93.60
2017-10-24T20:46:55.353Z,93.40
2017-10-24T20:49:24.951Z,93.40
2017-10-24T20:51:54.213Z,93.50
2017-10-24T20:54:23.073Z,93.60
2017-10-24T20:56:51.164Z,93.40
2017-10-24T20:59:19.272Z,93.40
2017-10-24T21:01:47.431Z,93.40
2017-10-24T21:04:15.548Z,93.40
2017-10-24T21:06:43.649Z,93.30
2017-10-24T21:09:11.752Z,93.30
2017-10-24T21:11:39.860Z,93.40
2017-10-24T21:14:08.714Z,93.70
2017-10-24T21:16:37.216Z,93.40
2017-10-24T21:19:06.088Z,93.80
2017-10-24T21:21:34.204Z,93.50
2017-10-24T21:24:02.296Z,93.50
2017-10-24T21:26:30.414Z,93.60
2017-10-24T21:28:58.577Z,93.50
2017-10-24T21:33:56.019Z,93.50
2017-10-24T21:38:53.887Z,93.80
2017-10-24T21:41:22.393Z,93.90
2017-10-24T21:46:21.359Z,94.00
2017-10-24T21:48:50.243Z,94.30
2017-10-24T21:51:19.100Z,94.40
2017-10-24T21:53:47.212Z,94.20
2017-10-24T21:56:16.063Z,94.50
2017-10-24T21:58:44.171Z,94.30
2017-10-24T22:01:13.051Z,94.50
2017-10-24T22:03:41.931Z,94.90
2017-10-24T22:06:10.040Z,94.60
2017-10-24T22:08:38.147Z,94.40
2017-10-24T22:11:06.235Z,94.50
2017-10-24T22:13:34.360Z,94.80
2017-10-24T22:16:02.852Z,94.60
2017-10-24T22:18:30.949Z,94.80
2017-10-24T22:20:59.052Z,94.70
2017-10-24T22:23:27.143Z,94.60
2017-10-24T22:25:56.019Z,94.90
2017-10-24T22:28:24.116Z,94.60
2017-10-24T22:30:52.987Z,94.90
2017-10-24T22:33:21.876Z,94.80
2017-10-24T22:35:49.963Z,94.60
2017-10-24T22:38:18.820Z,94.90
2017-10-24T22:40:46.932Z,94.60
2017-10-24T22:43:15.024Z,94.60
2017-10-24T22:45:43.147Z,94.50
2017-10-24T22:48:11.235Z,94.50
2017-10-24T22:50:40.099Z,94.90
2017-10-24T22:53:08.218Z,94.70
2017-10-24T22:55:36.315Z,94.80
2017-10-24T22:58:04.404Z,94.70
2017-10-24T23:00:32.524Z,94.70
2017-10-24T23:03:01.381Z,94.70
2017-10-24T23:05:29.480Z,94.30
2017-10-24T23:07:58.380Z,94.30
2017-10-24T23:10:27.236Z,94.80
2017-10-24T23:12:55.348Z,94.20
2017-10-24T23:15:23.453Z,94.20
2017-10-24T23:17:51.540Z,94.20
2017-10-24T23:20:19.644Z,94.20
2017-10-24T23:22:49.255Z,94.20
2017-10-24T23:25:17.388Z,94.30
2017-10-24T23:27:45.495Z,94.30
2017-10-24T23:30:13.588Z,94.30
2017-10-24T23:32:42.467Z,94.50
2017-10-24T23:35:11.335Z,94.10
2017-10-24T23:37:39.424Z,94.10
2017-10-24T23:40:07.531Z,94.00
2017-10-24T23:42:35.654Z,93.90
2017-10-24T23:45:03.739Z,94.10
2017-10-24T23:47:31.855Z,94.00
2017-10-24T23:49:59.952Z,94.10
2017-10-24T23:52:28.039Z,94.00
2017-10-24T23:54:56.163Z,94.20
2017-10-24T23:57:24.252Z,94.10
2017-10-24T23:59:52.363Z,94.20
